sensor_id;sensor_type;location;lat;lon;timestamp;P1;durP1;ratioP1;P2;durP2;ratioP2
64242;SDS011;50573;51.512;5.386;2023-09-07T00:00:05;20.33;;;15.40;;
64242;SDS011;50573;51.512;5.386;2023-09-07T00:10:12;22.52;;;16.00;;
64242;SDS011;50573;51.512;5.386;2023-09-07T00:20:18;28.17;;;17.58;;
64242;SDS011;50573;51.512;5.386;2023-09-07T00:30:21;23.35;;;16.48;;
64242;SDS011;50573;51.512;5.386;2023-09-07T00:40:25;25.63;;;18.50;;
64242;SDS011;50573;51.512;5.386;2023-09-07T00:50:29;26.95;;;18.13;;
64242;SDS011;50573;51.512;5.386;2023-09-07T01:00:33;28.53;;;20.00;;
64242;SDS011;50573;51.512;5.386;2023-09-07T01:10:37;23.17;;;18.23;;
64242;SDS011;50573;51.512;5.386;2023-09-07T01:20:41;23.60;;;17.80;;
64242;SDS011;50573;51.512;5.386;2023-09-07T01:30:48;26.15;;;19.20;;
64242;SDS011;50573;51.512;5.386;2023-09-07T01:40:54;23.23;;;18.85;;
64242;SDS011;50573;51.512;5.386;2023-09-07T01:50:58;24.45;;;20.00;;
64242;SDS011;50573;51.512;5.386;2023-09-07T02:01:05;28.27;;;19.55;;
64242;SDS011;50573;51.512;5.386;2023-09-07T02:11:09;25.40;;;19.83;;
64242;SDS011;50573;51.512;5.386;2023-09-07T02:21:13;28.85;;;21.42;;
64242;SDS011;50573;51.512;5.386;2023-09-07T02:31:19;29.65;;;21.00;;
64242;SDS011;50573;51.512;5.386;2023-09-07T02:41:22;26.85;;;21.08;;
64242;SDS011;50573;51.512;5.386;2023-09-07T02:51:27;27.83;;;20.57;;
64242;SDS011;50573;51.512;5.386;2023-09-07T03:01:31;33.65;;;21.20;;
64242;SDS011;50573;51.512;5.386;2023-09-07T03:11:36;25.60;;;21.13;;
64242;SDS011;50573;51.512;5.386;2023-09-07T03:21:39;25.63;;;20.52;;
64242;SDS011;50573;51.512;5.386;2023-09-07T03:31:43;26.35;;;18.80;;
64242;SDS011;50573;51.512;5.386;2023-09-07T03:41:47;25.73;;;20.33;;
64242;SDS011;50573;51.512;5.386;2023-09-07T03:51:52;29.52;;;20.50;;
64242;SDS011;50573;51.512;5.386;2023-09-07T04:01:55;30.60;;;19.88;;
64242;SDS011;50573;51.512;5.386;2023-09-07T04:11:59;27.58;;;19.75;;
64242;SDS011;50573;51.512;5.386;2023-09-07T04:22:05;23.98;;;19.13;;
64242;SDS011;50573;51.512;5.386;2023-09-07T04:32:09;27.00;;;18.77;;
64242;SDS011;50573;51.512;5.386;2023-09-07T04:52:17;26.83;;;19.95;;
64242;SDS011;50573;51.512;5.386;2023-09-07T05:02:20;28.58;;;19.63;;
64242;SDS011;50573;51.512;5.386;2023-09-07T05:12:25;24.75;;;17.88;;
64242;SDS011;50573;51.512;5.386;2023-09-07T05:32:33;25.15;;;19.02;;
64242;SDS011;50573;51.512;5.386;2023-09-07T05:42:36;30.00;;;19.88;;
64242;SDS011;50573;51.512;5.386;2023-09-07T05:52:42;23.20;;;18.02;;
64242;SDS011;50573;51.512;5.386;2023-09-07T06:02:45;24.48;;;18.73;;
64242;SDS011;50573;51.512;5.386;2023-09-07T06:12:51;26.03;;;16.77;;
64242;SDS011;50573;51.512;5.386;2023-09-07T06:22:55;20.60;;;14.63;;
64242;SDS011;50573;51.512;5.386;2023-09-07T06:33:00;20.30;;;13.17;;
64242;SDS011;50573;51.512;5.386;2023-09-07T06:43:07;15.73;;;12.25;;
64242;SDS011;50573;51.512;5.386;2023-09-07T06:53:19;20.58;;;13.68;;
64242;SDS011;50573;51.512;5.386;2023-09-07T07:03:24;19.52;;;12.40;;
64242;SDS011;50573;51.512;5.386;2023-09-07T07:13:31;14.93;;;12.15;;
64242;SDS011;50573;51.512;5.386;2023-09-07T07:23:35;19.25;;;11.32;;
64242;SDS011;50573;51.512;5.386;2023-09-07T07:33:48;14.30;;;9.73;;
64242;SDS011;50573;51.512;5.386;2023-09-07T07:43:55;14.15;;;8.80;;
64242;SDS011;50573;51.512;5.386;2023-09-07T07:54:02;15.52;;;8.75;;
64242;SDS011;50573;51.512;5.386;2023-09-07T08:04:06;12.65;;;8.00;;
64242;SDS011;50573;51.512;5.386;2023-09-07T08:14:21;9.68;;;7.10;;
64242;SDS011;50573;51.512;5.386;2023-09-07T08:24:29;8.93;;;6.43;;
64242;SDS011;50573;51.512;5.386;2023-09-07T08:34:39;10.68;;;6.38;;
64242;SDS011;50573;51.512;5.386;2023-09-07T08:44:46;10.68;;;5.63;;
64242;SDS011;50573;51.512;5.386;2023-09-07T08:54:54;10.68;;;5.63;;
64242;SDS011;50573;51.512;5.386;2023-09-07T09:05:01;12.27;;;5.38;;
64242;SDS011;50573;51.512;5.386;2023-09-07T09:25:26;11.73;;;5.28;;
64242;SDS011;50573;51.512;5.386;2023-09-07T09:35:30;8.18;;;4.75;;
64242;SDS011;50573;51.512;5.386;2023-09-07T09:45:35;10.52;;;5.13;;
64242;SDS011;50573;51.512;5.386;2023-09-07T09:55:49;10.07;;;4.70;;
64242;SDS011;50573;51.512;5.386;2023-09-07T10:05:54;7.85;;;4.75;;
64242;SDS011;50573;51.512;5.386;2023-09-07T10:16:01;13.05;;;5.13;;
64242;SDS011;50573;51.512;5.386;2023-09-07T10:26:10;10.03;;;4.77;;
64242;SDS011;50573;51.512;5.386;2023-09-07T10:36:23;10.52;;;4.93;;
64242;SDS011;50573;51.512;5.386;2023-09-07T10:46:26;8.60;;;4.97;;
64242;SDS011;50573;51.512;5.386;2023-09-07T10:56:34;6.75;;;4.45;;
64242;SDS011;50573;51.512;5.386;2023-09-07T11:06:40;11.18;;;4.55;;
64242;SDS011;50573;51.512;5.386;2023-09-07T11:16:51;12.48;;;4.25;;
64242;SDS011;50573;51.512;5.386;2023-09-07T11:26:58;6.45;;;3.70;;
64242;SDS011;50573;51.512;5.386;2023-09-07T11:37:08;4.72;;;4.00;;
64242;SDS011;50573;51.512;5.386;2023-09-07T11:47:14;5.93;;;3.97;;
64242;SDS011;50573;51.512;5.386;2023-09-07T11:57:28;14.82;;;4.10;;
64242;SDS011;50573;51.512;5.386;2023-09-07T12:07:31;10.20;;;3.83;;
64242;SDS011;50573;51.512;5.386;2023-09-07T12:17:43;7.40;;;4.15;;
64242;SDS011;50573;51.512;5.386;2023-09-07T12:27:47;8.90;;;3.92;;
64242;SDS011;50573;51.512;5.386;2023-09-07T12:37:56;5.10;;;4.05;;
64242;SDS011;50573;51.512;5.386;2023-09-07T12:48:04;6.82;;;3.67;;
64242;SDS011;50573;51.512;5.386;2023-09-07T12:58:15;8.68;;;4.00;;
64242;SDS011;50573;51.512;5.386;2023-09-07T13:08:18;6.07;;;4.30;;
64242;SDS011;50573;51.512;5.386;2023-09-07T13:18:31;9.15;;;3.95;;
64242;SDS011;50573;51.512;5.386;2023-09-07T13:28:37;7.10;;;4.28;;
64242;SDS011;50573;51.512;5.386;2023-09-07T13:38:41;5.10;;;3.88;;
64242;SDS011;50573;51.512;5.386;2023-09-07T13:48:53;8.60;;;4.15;;
64242;SDS011;50573;51.512;5.386;2023-09-07T13:59:03;11.55;;;4.78;;
64242;SDS011;50573;51.512;5.386;2023-09-07T14:09:10;33.03;;;5.55;;
64242;SDS011;50573;51.512;5.386;2023-09-07T14:19:21;7.07;;;4.15;;
64242;SDS011;50573;51.512;5.386;2023-09-07T14:29:28;14.27;;;4.43;;
64242;SDS011;50573;51.512;5.386;2023-09-07T14:39:35;9.32;;;3.80;;
64242;SDS011;50573;51.512;5.386;2023-09-07T14:49:47;9.85;;;4.45;;
64242;SDS011;50573;51.512;5.386;2023-09-07T14:59:52;10.60;;;4.45;;
64242;SDS011;50573;51.512;5.386;2023-09-07T15:10:02;7.97;;;4.07;;
64242;SDS011;50573;51.512;5.386;2023-09-07T15:20:08;7.47;;;4.50;;
64242;SDS011;50573;51.512;5.386;2023-09-07T15:30:18;9.25;;;4.00;;
64242;SDS011;50573;51.512;5.386;2023-09-07T15:40:25;6.72;;;4.13;;
64242;SDS011;50573;51.512;5.386;2023-09-07T15:50:32;10.43;;;4.30;;
64242;SDS011;50573;51.512;5.386;2023-09-07T16:00:40;8.05;;;4.03;;
64242;SDS011;50573;51.512;5.386;2023-09-07T16:10:49;6.93;;;3.90;;
64242;SDS011;50573;51.512;5.386;2023-09-07T16:21:01;9.98;;;4.25;;
64242;SDS011;50573;51.512;5.386;2023-09-07T16:31:07;7.82;;;4.38;;
64242;SDS011;50573;51.512;5.386;2023-09-07T16:41:18;8.88;;;4.18;;
64242;SDS011;50573;51.512;5.386;2023-09-07T16:51:24;5.45;;;4.68;;
64242;SDS011;50573;51.512;5.386;2023-09-07T17:01:30;6.75;;;4.50;;
64242;SDS011;50573;51.512;5.386;2023-09-07T17:11:35;7.90;;;4.28;;
64242;SDS011;50573;51.512;5.386;2023-09-07T17:21:49;14.88;;;7.20;;
64242;SDS011;50573;51.512;5.386;2023-09-07T17:31:57;10.20;;;5.32;;
64242;SDS011;50573;51.512;5.386;2023-09-07T17:42:05;6.78;;;5.55;;
64242;SDS011;50573;51.512;5.386;2023-09-07T17:52:17;9.27;;;5.47;;
64242;SDS011;50573;51.512;5.386;2023-09-07T18:02:22;10.02;;;6.22;;
64242;SDS011;50573;51.512;5.386;2023-09-07T18:12:28;12.32;;;6.60;;
64242;SDS011;50573;51.512;5.386;2023-09-07T18:22:32;7.85;;;5.70;;
64242;SDS011;50573;51.512;5.386;2023-09-07T18:32:35;10.73;;;6.30;;
64242;SDS011;50573;51.512;5.386;2023-09-07T18:42:40;8.75;;;6.47;;
64242;SDS011;50573;51.512;5.386;2023-09-07T18:52:43;9.90;;;7.00;;
64242;SDS011;50573;51.512;5.386;2023-09-07T19:02:47;16.42;;;8.50;;
64242;SDS011;50573;51.512;5.386;2023-09-07T19:12:51;16.02;;;10.10;;
64242;SDS011;50573;51.512;5.386;2023-09-07T19:22:55;21.00;;;9.55;;
64242;SDS011;50573;51.512;5.386;2023-09-07T19:32:58;14.90;;;10.65;;
64242;SDS011;50573;51.512;5.386;2023-09-07T19:53:06;14.45;;;10.35;;
64242;SDS011;50573;51.512;5.386;2023-09-07T20:03:10;13.57;;;8.90;;
64242;SDS011;50573;51.512;5.386;2023-09-07T20:13:13;13.13;;;8.60;;
64242;SDS011;50573;51.512;5.386;2023-09-07T20:23:18;17.80;;;8.95;;
64242;SDS011;50573;51.512;5.386;2023-09-07T20:33:21;17.90;;;8.05;;
64242;SDS011;50573;51.512;5.386;2023-09-07T20:43:28;12.65;;;7.60;;
64242;SDS011;50573;51.512;5.386;2023-09-07T20:53:31;10.48;;;7.65;;
64242;SDS011;50573;51.512;5.386;2023-09-07T21:03:36;12.57;;;6.80;;
64242;SDS011;50573;51.512;5.386;2023-09-07T21:13:39;10.32;;;7.75;;
64242;SDS011;50573;51.512;5.386;2023-09-07T21:23:43;17.67;;;8.43;;
64242;SDS011;50573;51.512;5.386;2023-09-07T21:33:46;8.93;;;6.50;;
64242;SDS011;50573;51.512;5.386;2023-09-07T21:43:51;13.17;;;7.20;;
64242;SDS011;50573;51.512;5.386;2023-09-07T21:53:56;13.88;;;7.47;;
64242;SDS011;50573;51.512;5.386;2023-09-07T22:04:02;12.02;;;6.70;;
64242;SDS011;50573;51.512;5.386;2023-09-07T22:14:05;13.85;;;7.63;;
64242;SDS011;50573;51.512;5.386;2023-09-07T22:24:10;14.07;;;7.40;;
64242;SDS011;50573;51.512;5.386;2023-09-07T22:34:13;11.60;;;7.00;;
64242;SDS011;50573;51.512;5.386;2023-09-07T22:44:17;14.27;;;7.20;;
64242;SDS011;50573;51.512;5.386;2023-09-07T22:54:20;11.38;;;7.47;;
64242;SDS011;50573;51.512;5.386;2023-09-07T23:04:25;9.13;;;7.00;;
64242;SDS011;50573;51.512;5.386;2023-09-07T23:14:28;10.48;;;6.68;;
64242;SDS011;50573;51.512;5.386;2023-09-07T23:24:33;10.88;;;6.93;;
64242;SDS011;50573;51.512;5.386;2023-09-07T23:34:36;15.52;;;7.35;;
64242;SDS011;50573;51.512;5.386;2023-09-07T23:44:40;11.17;;;7.70;;
64242;SDS011;50573;51.512;5.386;2023-09-07T23:54:43;11.82;;;7.90;;
